sensor_id;sensor_type;location;lat;lon;timestamp;pressure;altitude;pressure_sealevel;temperature;humidity
20909;BME280;10614;53.198;6.570;2023-01-29T00:01:07;102891.09;;;3.61;100.00
20909;BME280;10614;53.198;6.570;2023-01-29T00:03:08;102898.88;;;3.59;100.00
20909;BME280;10614;53.198;6.570;2023-01-29T00:05:10;102917.97;;;3.60;100.00
20909;BME280;10614;53.198;6.570;2023-01-29T00:07:11;102909.28;;;3.59;100.00
20909;BME280;10614;53.198;6.570;2023-01-29T00:09:13;102911.03;;;3.59;100.00
20909;BME280;10614;53.198;6.570;2023-01-29T00:11:16;102914.50;;;3.59;100.00
20909;BME280;10614;53.198;6.570;2023-01-29T00:13:19;102912.78;;;3.60;100.00
20909;BME280;10614;53.198;6.570;2023-01-29T00:15:21;102900.59;;;3.59;100.00
20909;BME280;10614;53.198;6.570;2023-01-29T00:17:23;102904.13;;;3.61;100.00
20909;BME280;10614;53.198;6.570;2023-01-29T00:19:25;102902.34;;;3.60;100.00
20909;BME280;10614;53.198;6.570;2023-01-29T00:21:29;102900.59;;;3.59;100.00
20909;BME280;10614;53.198;6.570;2023-01-29T00:23:31;102902.34;;;3.58;100.00
20909;BME280;10614;53.198;6.570;2023-01-29T00:25:33;102907.56;;;3.58;100.00
20909;BME280;10614;53.198;6.570;2023-01-29T00:27:35;102905.84;;;3.61;100.00
20909;BME280;10614;53.198;6.570;2023-01-29T00:29:37;102904.97;;;3.60;100.00
20909;BME280;10614;53.198;6.570;2023-01-29T00:31:39;102899.78;;;3.62;100.00
20909;BME280;10614;53.198;6.570;2023-01-29T00:33:40;102892.84;;;3.61;100.00
20909;BME280;10614;53.198;6.570;2023-01-29T00:35:42;102891.97;;;3.62;100.00
20909;BME280;10614;53.198;6.570;2023-01-29T00:37:44;102885.03;;;3.61;100.00
20909;BME280;10614;53.198;6.570;2023-01-29T00:39:45;102884.13;;;3.60;100.00
20909;BME280;10614;53.198;6.570;2023-01-29T00:41:47;102876.31;;;3.60;100.00
20909;BME280;10614;53.198;6.570;2023-01-29T00:44:07;102884.13;;;3.60;100.00
20909;BME280;10614;53.198;6.570;2023-01-29T00:46:26;102882.44;;;3.61;100.00
20909;BME280;10614;53.198;6.570;2023-01-29T00:48:28;102878.09;;;3.61;100.00
20909;BME280;10614;53.198;6.570;2023-01-29T00:50:30;102869.41;;;3.61;100.00
20909;BME280;10614;53.198;6.570;2023-01-29T00:52:32;102864.19;;;3.61;100.00
20909;BME280;10614;53.198;6.570;2023-01-29T00:54:35;102859.00;;;3.61;100.00
20909;BME280;10614;53.198;6.570;2023-01-29T00:56:37;102858.94;;;3.59;100.00
20909;BME280;10614;53.198;6.570;2023-01-29T00:58:39;102858.06;;;3.58;100.00
20909;BME280;10614;53.198;6.570;2023-01-29T01:00:42;102852.88;;;3.58;100.00
20909;BME280;10614;53.198;6.570;2023-01-29T01:02:43;102856.34;;;3.59;100.00
20909;BME280;10614;53.198;6.570;2023-01-29T01:05:03;102859.00;;;3.61;100.00
20909;BME280;10614;53.198;6.570;2023-01-29T01:07:06;102857.16;;;3.58;100.00
20909;BME280;10614;53.198;6.570;2023-01-29T01:09:09;102851.94;;;3.56;100.00
20909;BME280;10614;53.198;6.570;2023-01-29T01:11:28;102845.91;;;3.59;100.00
20909;BME280;10614;53.198;6.570;2023-01-29T01:13:31;102858.09;;;3.60;100.00
20909;BME280;10614;53.198;6.570;2023-01-29T01:15:35;102846.84;;;3.61;100.00
20909;BME280;10614;53.198;6.570;2023-01-29T01:17:38;102861.59;;;3.62;100.00
20909;BME280;10614;53.198;6.570;2023-01-29T01:19:39;102859.84;;;3.61;100.00
20909;BME280;10614;53.198;6.570;2023-01-29T01:21:41;102859.00;;;3.61;100.00
20909;BME280;10614;53.198;6.570;2023-01-29T01:23:44;102866.81;;;3.62;100.00
20909;BME280;10614;53.198;6.570;2023-01-29T01:25:46;102866.81;;;3.62;100.00
20909;BME280;10614;53.198;6.570;2023-01-29T01:27:51;102864.19;;;3.62;100.00
20909;BME280;10614;53.198;6.570;2023-01-29T01:29:53;102866.81;;;3.62;100.00
20909;BME280;10614;53.198;6.570;2023-01-29T01:31:54;102862.47;;;3.61;100.00
20909;BME280;10614;53.198;6.570;2023-01-29T01:33:57;102871.09;;;3.60;100.00
20909;BME280;10614;53.198;6.570;2023-01-29T01:36:00;102865.91;;;3.60;100.00
20909;BME280;10614;53.198;6.570;2023-01-29T01:38:02;102858.09;;;3.60;100.00
20909;BME280;10614;53.198;6.570;2023-01-29T01:40:04;102872.84;;;3.59;100.00
20909;BME280;10614;53.198;6.570;2023-01-29T01:42:12;102861.53;;;3.59;100.00
20909;BME280;10614;53.198;6.570;2023-01-29T01:44:51;102864.97;;;3.58;100.00
20909;BME280;10614;53.198;6.570;2023-01-29T01:46:54;102865.88;;;3.58;100.00
20909;BME280;10614;53.198;6.570;2023-01-29T01:48:59;102870.19;;;3.58;100.00
20909;BME280;10614;53.198;6.570;2023-01-29T01:51:04;102865.06;;;3.61;100.00
20909;BME280;10614;53.198;6.570;2023-01-29T01:53:08;102867.66;;;3.61;100.00
20909;BME280;10614;53.198;6.570;2023-01-29T01:55:12;102876.34;;;3.62;100.00
20909;BME280;10614;53.198;6.570;2023-01-29T01:57:17;102875.47;;;3.61;100.00
20909;BME280;10614;53.198;6.570;2023-01-29T01:59:24;102875.47;;;3.61;100.00
20909;BME280;10614;53.198;6.570;2023-01-29T02:01:26;102879.81;;;3.61;100.00
20909;BME280;10614;53.198;6.570;2023-01-29T02:03:29;102878.09;;;3.61;100.00
20909;BME280;10614;53.198;6.570;2023-01-29T02:05:52;102876.34;;;3.62;100.00
20909;BME280;10614;53.198;6.570;2023-01-29T02:08:15;102872.88;;;3.61;100.00
20909;BME280;10614;53.198;6.570;2023-01-29T02:10:41;102865.03;;;3.59;100.00
20909;BME280;10614;53.198;6.570;2023-01-29T02:12:43;102872.00;;;3.62;100.00
20909;BME280;10614;53.198;6.570;2023-01-29T02:14:45;102864.16;;;3.59;100.00
20909;BME280;10614;53.198;6.570;2023-01-29T02:16:47;102870.28;;;3.61;100.00
20909;BME280;10614;53.198;6.570;2023-01-29T02:18:49;102878.09;;;3.61;100.00
20909;BME280;10614;53.198;6.570;2023-01-29T02:21:06;102869.41;;;3.61;100.00
20909;BME280;10614;53.198;6.570;2023-01-29T02:25:58;102872.00;;;3.62;100.00
20909;BME280;10614;53.198;6.570;2023-01-29T02:28:13;102868.59;;;3.63;100.00
20909;BME280;10614;53.198;6.570;2023-01-29T02:30:20;102864.19;;;3.62;100.00
20909;BME280;10614;53.198;6.570;2023-01-29T02:32:28;102857.31;;;3.64;100.00
20909;BME280;10614;53.198;6.570;2023-01-29T02:34:39;102846.84;;;3.63;100.00
20909;BME280;10614;53.198;6.570;2023-01-29T02:37:04;102840.81;;;3.64;100.00
20909;BME280;10614;53.198;6.570;2023-01-29T02:39:14;102848.63;;;3.65;100.00
20909;BME280;10614;53.198;6.570;2023-01-29T02:41:25;102842.53;;;3.63;100.00
20909;BME280;10614;53.198;6.570;2023-01-29T02:43:35;102842.56;;;3.65;100.00
20909;BME280;10614;53.198;6.570;2023-01-29T02:45:45;102841.72;;;3.66;100.00
20909;BME280;10614;53.198;6.570;2023-01-29T02:47:54;102838.22;;;3.64;100.00
20909;BME280;10614;53.198;6.570;2023-01-29T02:50:02;102831.22;;;3.61;100.00
20909;BME280;10614;53.198;6.570;2023-01-29T02:52:09;102821.72;;;3.63;100.00
20909;BME280;10614;53.198;6.570;2023-01-29T02:54:20;102814.72;;;3.62;100.00
20909;BME280;10614;53.198;6.570;2023-01-29T02:56:26;102806.09;;;3.63;100.00
20909;BME280;10614;53.198;6.570;2023-01-29T02:58:35;102800.88;;;3.65;100.00
20909;BME280;10614;53.198;6.570;2023-01-29T03:00:42;102779.13;;;3.63;100.00
20909;BME280;10614;53.198;6.570;2023-01-29T03:02:48;102785.25;;;3.65;100.00
20909;BME280;10614;53.198;6.570;2023-01-29T03:04:54;102773.09;;;3.65;100.00
20909;BME280;10614;53.198;6.570;2023-01-29T03:07:03;102776.63;;;3.66;100.00
20909;BME280;10614;53.198;6.570;2023-01-29T03:09:10;102773.09;;;3.65;100.00
20909;BME280;10614;53.198;6.570;2023-01-29T03:11:16;102763.59;;;3.66;100.00
20909;BME280;10614;53.198;6.570;2023-01-29T03:13:20;102763.56;;;3.64;100.00
20909;BME280;10614;53.198;6.570;2023-01-29T03:15:31;102760.09;;;3.65;100.00
20909;BME280;10614;53.198;6.570;2023-01-29T03:17:42;102760.09;;;3.65;100.00
20909;BME280;10614;53.198;6.570;2023-01-29T03:19:46;102757.47;;;3.65;100.00
20909;BME280;10614;53.198;6.570;2023-01-29T03:21:50;102763.59;;;3.66;100.00
20909;BME280;10614;53.198;6.570;2023-01-29T03:23:58;102754.81;;;3.62;100.00
20909;BME280;10614;53.198;6.570;2023-01-29T03:26:20;102749.63;;;3.62;100.00
20909;BME280;10614;53.198;6.570;2023-01-29T03:28:41;102741.81;;;3.62;100.00
20909;BME280;10614;53.198;6.570;2023-01-29T03:31:05;102739.19;;;3.62;100.00
20909;BME280;10614;53.198;6.570;2023-01-29T03:33:27;102743.50;;;3.60;100.00
20909;BME280;10614;53.198;6.570;2023-01-29T03:35:35;102733.09;;;3.60;100.00
20909;BME280;10614;53.198;6.570;2023-01-29T03:37:41;102744.38;;;3.59;100.00
20909;BME280;10614;53.198;6.570;2023-01-29T03:39:44;102738.19;;;3.55;100.00
20909;BME280;10614;53.198;6.570;2023-01-29T03:41:50;102738.16;;;3.52;100.00
20909;BME280;10614;53.198;6.570;2023-01-29T03:43:56;102740.75;;;3.52;100.00
20909;BME280;10614;53.198;6.570;2023-01-29T03:46:07;102746.00;;;3.54;100.00
20909;BME280;10614;53.198;6.570;2023-01-29T03:48:26;102738.19;;;3.54;100.00
20909;BME280;10614;53.198;6.570;2023-01-29T03:50:36;102739.06;;;3.54;100.00
20909;BME280;10614;53.198;6.570;2023-01-29T03:52:45;102745.16;;;3.55;100.00
20909;BME280;10614;53.198;6.570;2023-01-29T03:54:55;102748.56;;;3.52;100.00
20909;BME280;10614;53.198;6.570;2023-01-29T03:57:02;102752.09;;;3.54;100.00
20909;BME280;10614;53.198;6.570;2023-01-29T03:59:14;102745.91;;;3.51;100.00
20909;BME280;10614;53.198;6.570;2023-01-29T04:01:20;102749.44;;;3.51;100.00
20909;BME280;10614;53.198;6.570;2023-01-29T04:03:30;102754.63;;;3.51;100.00
20909;BME280;10614;53.198;6.570;2023-01-29T04:05:44;102750.25;;;3.50;100.00
20909;BME280;10614;53.198;6.570;2023-01-29T04:07:52;102755.50;;;3.53;100.00
20909;BME280;10614;53.198;6.570;2023-01-29T04:09:59;102758.13;;;3.53;100.00
20909;BME280;10614;53.198;6.570;2023-01-29T04:12:02;102758.97;;;3.52;100.00
20909;BME280;10614;53.198;6.570;2023-01-29T04:14:06;102750.31;;;3.52;100.00
20909;BME280;10614;53.198;6.570;2023-01-29T04:16:12;102748.59;;;3.54;100.00
20909;BME280;10614;53.198;6.570;2023-01-29T04:18:17;102758.13;;;3.53;100.00
20909;BME280;10614;53.198;6.570;2023-01-29T04:20:19;102751.16;;;3.52;100.00
20909;BME280;10614;53.198;6.570;2023-01-29T04:22:23;102748.59;;;3.54;100.00
20909;BME280;10614;53.198;6.570;2023-01-29T04:24:28;102746.91;;;3.56;100.00
20909;BME280;10614;53.198;6.570;2023-01-29T04:26:49;102747.78;;;3.56;100.00
20909;BME280;10614;53.198;6.570;2023-01-29T04:29:06;102747.78;;;3.58;100.00
20909;BME280;10614;53.198;6.570;2023-01-29T04:31:11;102741.72;;;3.57;100.00
20909;BME280;10614;53.198;6.570;2023-01-29T04:33:21;102740.88;;;3.58;100.00
20909;BME280;10614;53.198;6.570;2023-01-29T04:35:31;102753.09;;;3.61;100.00
20909;BME280;10614;53.198;6.570;2023-01-29T04:37:36;102748.72;;;3.60;100.00
20909;BME280;10614;53.198;6.570;2023-01-29T04:39:46;102748.72;;;3.60;100.00
20909;BME280;10614;53.198;6.570;2023-01-29T04:41:52;102755.69;;;3.61;100.00
20909;BME280;10614;53.198;6.570;2023-01-29T04:44:00;102764.38;;;3.62;100.00
20909;BME280;10614;53.198;6.570;2023-01-29T04:46:10;102771.31;;;3.61;100.00
20909;BME280;10614;53.198;6.570;2023-01-29T04:48:20;102780.00;;;3.62;100.00
20909;BME280;10614;53.198;6.570;2023-01-29T04:50:28;102772.19;;;3.62;100.00
20909;BME280;10614;53.198;6.570;2023-01-29T04:52:42;102766.97;;;3.62;100.00
20909;BME280;10614;53.198;6.570;2023-01-29T04:54:53;102767.03;;;3.63;100.00
20909;BME280;10614;53.198;6.570;2023-01-29T04:57:05;102758.31;;;3.63;100.00
20909;BME280;10614;53.198;6.570;2023-01-29T04:59:11;102754.00;;;3.63;100.00
20909;BME280;10614;53.198;6.570;2023-01-29T05:01:16;102748.81;;;3.65;100.00
20909;BME280;10614;53.198;6.570;2023-01-29T05:03:23;102728.81;;;3.64;100.00
20909;BME280;10614;53.198;6.570;2023-01-29T05:05:25;102716.69;;;3.64;100.00
20909;BME280;10614;53.198;6.570;2023-01-29T05:07:29;102724.50;;;3.64;100.00
20909;BME280;10614;53.198;6.570;2023-01-29T05:09:31;102721.88;;;3.64;100.00
20909;BME280;10614;53.198;6.570;2023-01-29T05:11:34;102710.59;;;3.65;100.00
20909;BME280;10614;53.198;6.570;2023-01-29T05:13:39;102701.09;;;3.66;100.00
20909;BME280;10614;53.198;6.570;2023-01-29T05:15:45;102692.38;;;3.65;100.00
20909;BME280;10614;53.198;6.570;2023-01-29T05:17:49;102694.09;;;3.65;100.00
20909;BME280;10614;53.198;6.570;2023-01-29T05:19:55;102687.16;;;3.64;100.00
20909;BME280;10614;53.198;6.570;2023-01-29T05:21:57;102697.56;;;3.64;100.00
20909;BME280;10614;53.198;6.570;2023-01-29T05:24:08;102702.75;;;3.62;100.00
20909;BME280;10614;53.198;6.570;2023-01-29T05:26:10;102701.06;;;3.64;100.00
20909;BME280;10614;53.198;6.570;2023-01-29T05:28:29;102694.09;;;3.63;100.00
20909;BME280;10614;53.198;6.570;2023-01-29T05:30:32;102686.28;;;3.63;100.00
20909;BME280;10614;53.198;6.570;2023-01-29T05:32:34;102695.81;;;3.63;100.00
20909;BME280;10614;53.198;6.570;2023-01-29T05:34:35;102688.84;;;3.62;100.00
20909;BME280;10614;53.198;6.570;2023-01-29T05:36:38;102687.06;;;3.59;100.00
20909;BME280;10614;53.198;6.570;2023-01-29T05:38:40;102685.31;;;3.58;100.00
20909;BME280;10614;53.198;6.570;2023-01-29T05:40:42;102687.03;;;3.57;100.00
20909;BME280;10614;53.198;6.570;2023-01-29T05:42:44;102679.22;;;3.57;100.00
20909;BME280;10614;53.198;6.570;2023-01-29T05:44:45;102667.91;;;3.55;100.00
20909;BME280;10614;53.198;6.570;2023-01-29T05:46:47;102666.19;;;3.56;100.00
20909;BME280;10614;53.198;6.570;2023-01-29T05:48:51;102661.84;;;3.56;100.00
20909;BME280;10614;53.198;6.570;2023-01-29T05:50:53;102657.47;;;3.55;100.00
20909;BME280;10614;53.198;6.570;2023-01-29T05:52:57;102650.53;;;3.54;100.00
20909;BME280;10614;53.198;6.570;2023-01-29T05:54:58;102648.81;;;3.55;100.00
20909;BME280;10614;53.198;6.570;2023-01-29T05:57:00;102639.25;;;3.54;100.00
20909;BME280;10614;53.198;6.570;2023-01-29T05:59:02;102642.69;;;3.53;100.00
20909;BME280;10614;53.198;6.570;2023-01-29T06:01:08;102639.25;;;3.54;100.00
20909;BME280;10614;53.198;6.570;2023-01-29T06:03:10;102640.13;;;3.54;100.00
20909;BME280;10614;53.198;6.570;2023-01-29T06:05:12;102641.84;;;3.55;100.00
20909;BME280;10614;53.198;6.570;2023-01-29T06:07:13;102653.97;;;3.52;100.00
20909;BME280;10614;53.198;6.570;2023-01-29T06:09:16;102643.56;;;3.53;100.00
20909;BME280;10614;53.198;6.570;2023-01-29T06:11:18;102641.81;;;3.52;100.00
20909;BME280;10614;53.198;6.570;2023-01-29T06:13:20;102631.34;;;3.51;100.00
20909;BME280;10614;53.198;6.570;2023-01-29T06:15:22;102635.69;;;3.50;100.00
20909;BME280;10614;53.198;6.570;2023-01-29T06:17:25;102643.50;;;3.50;100.00
20909;BME280;10614;53.198;6.570;2023-01-29T06:19:27;102634.81;;;3.50;100.00
20909;BME280;10614;53.198;6.570;2023-01-29T06:21:28;102641.78;;;3.49;100.00
20909;BME280;10614;53.198;6.570;2023-01-29T06:23:30;102643.50;;;3.50;100.00
20909;BME280;10614;53.198;6.570;2023-01-29T06:25:33;102647.84;;;3.50;100.00
20909;BME280;10614;53.198;6.570;2023-01-29T06:27:35;102634.81;;;3.50;100.00
20909;BME280;10614;53.198;6.570;2023-01-29T06:29:37;102636.56;;;3.51;100.00
20909;BME280;10614;53.198;6.570;2023-01-29T06:31:38;102622.72;;;3.52;100.00
20909;BME280;10614;53.198;6.570;2023-01-29T06:33:40;102620.13;;;3.52;100.00
20909;BME280;10614;53.198;6.570;2023-01-29T06:35:41;102617.50;;;3.53;100.00
20909;BME280;10614;53.198;6.570;2023-01-29T06:37:43;102613.16;;;3.52;100.00
20909;BME280;10614;53.198;6.570;2023-01-29T06:39:44;102623.53;;;3.49;100.00
20909;BME280;10614;53.198;6.570;2023-01-29T06:41:47;102627.06;;;3.51;100.00
20909;BME280;10614;53.198;6.570;2023-01-29T06:43:50;102639.25;;;3.54;100.00
20909;BME280;10614;53.198;6.570;2023-01-29T06:45:53;102638.34;;;3.53;100.00
20909;BME280;10614;53.198;6.570;2023-01-29T06:47:55;102642.72;;;3.54;100.00
20909;BME280;10614;53.198;6.570;2023-01-29T06:49:57;102646.19;;;3.55;100.00
20909;BME280;10614;53.198;6.570;2023-01-29T06:51:58;102645.38;;;3.56;100.00
20909;BME280;10614;53.198;6.570;2023-01-29T06:54:00;102643.56;;;3.53;100.00
20909;BME280;10614;53.198;6.570;2023-01-29T06:56:02;102640.94;;;3.52;100.00
20909;BME280;10614;53.198;6.570;2023-01-29T06:58:06;102647.06;;;3.54;100.00
20909;BME280;10614;53.198;6.570;2023-01-29T07:00:08;102637.47;;;3.53;100.00
20909;BME280;10614;53.198;6.570;2023-01-29T07:02:10;102629.66;;;3.51;100.00
20909;BME280;10614;53.198;6.570;2023-01-29T07:04:12;102630.53;;;3.52;100.00
20909;BME280;10614;53.198;6.570;2023-01-29T07:06:13;102623.63;;;3.54;100.00
20909;BME280;10614;53.198;6.570;2023-01-29T07:08:15;102607.94;;;3.51;100.00
20909;BME280;10614;53.198;6.570;2023-01-29T07:10:17;102612.31;;;3.52;100.00
20909;BME280;10614;53.198;6.570;2023-01-29T07:12:19;102609.69;;;3.52;100.00
20909;BME280;10614;53.198;6.570;2023-01-29T07:14:22;102616.69;;;3.54;100.00
20909;BME280;10614;53.198;6.570;2023-01-29T07:16:23;102598.38;;;3.50;100.00
20909;BME280;10614;53.198;6.570;2023-01-29T07:18:25;102604.50;;;3.52;100.00
20909;BME280;10614;53.198;6.570;2023-01-29T07:20:28;102594.09;;;3.53;100.00
20909;BME280;10614;53.198;6.570;2023-01-29T07:22:30;102594.06;;;3.52;100.00
20909;BME280;10614;53.198;6.570;2023-01-29T07:24:32;102589.69;;;3.49;100.00
20909;BME280;10614;53.198;6.570;2023-01-29T07:26:33;102594.91;;;3.51;100.00
20909;BME280;10614;53.198;6.570;2023-01-29T07:28:36;102596.59;;;3.49;100.00
20909;BME280;10614;53.198;6.570;2023-01-29T07:30:39;102596.66;;;3.50;100.00
20909;BME280;10614;53.198;6.570;2023-01-29T07:32:41;102598.41;;;3.51;100.00
20909;BME280;10614;53.198;6.570;2023-01-29T07:34:43;102594.06;;;3.52;100.00
20909;BME280;10614;53.198;6.570;2023-01-29T07:36:44;102593.22;;;3.51;100.00
20909;BME280;10614;53.198;6.570;2023-01-29T07:38:48;102590.56;;;3.50;100.00
20909;BME280;10614;53.198;6.570;2023-01-29T07:40:50;102591.44;;;3.50;100.00
20909;BME280;10614;53.198;6.570;2023-01-29T07:42:56;102588.88;;;3.52;100.00
20909;BME280;10614;53.198;6.570;2023-01-29T07:44:58;102587.09;;;3.51;100.00
20909;BME280;10614;53.198;6.570;2023-01-29T07:47:01;102589.75;;;3.52;100.00
20909;BME280;10614;53.198;6.570;2023-01-29T07:49:03;102587.16;;;3.54;100.00
20909;BME280;10614;53.198;6.570;2023-01-29T07:51:05;102581.97;;;3.54;100.00
20909;BME280;10614;53.198;6.570;2023-01-29T07:53:07;102586.31;;;3.55;100.00
20909;BME280;10614;53.198;6.570;2023-01-29T07:55:12;102582.88;;;3.56;100.00
20909;BME280;10614;53.198;6.570;2023-01-29T07:57:14;102586.31;;;3.55;100.00
20909;BME280;10614;53.198;6.570;2023-01-29T07:59:15;102576.75;;;3.55;100.00
20909;BME280;10614;53.198;6.570;2023-01-29T08:01:17;102578.50;;;3.55;100.00
20909;BME280;10614;53.198;6.570;2023-01-29T08:03:20;102592.38;;;3.55;100.00
20909;BME280;10614;53.198;6.570;2023-01-29T08:05:22;102589.78;;;3.55;100.00
20909;BME280;10614;53.198;6.570;2023-01-29T08:07:24;102582.88;;;3.56;100.00
20909;BME280;10614;53.198;6.570;2023-01-29T08:09:25;102585.47;;;3.56;100.00
20909;BME280;10614;53.198;6.570;2023-01-29T08:11:27;102598.50;;;3.57;100.00
20909;BME280;10614;53.198;6.570;2023-01-29T08:13:29;102586.31;;;3.55;100.00
20909;BME280;10614;53.198;6.570;2023-01-29T08:15:34;102588.00;;;3.51;100.00
20909;BME280;10614;53.198;6.570;2023-01-29T08:17:37;102577.59;;;3.51;100.00
20909;BME280;10614;53.198;6.570;2023-01-29T08:19:40;102576.75;;;3.55;100.00
20909;BME280;10614;53.198;6.570;2023-01-29T08:21:42;102582.75;;;3.50;100.00
20909;BME280;10614;53.198;6.570;2023-01-29T08:23:44;102580.19;;;3.51;100.00
20909;BME280;10614;53.198;6.570;2023-01-29T08:25:45;102581.88;;;3.51;100.00
20909;BME280;10614;53.198;6.570;2023-01-29T08:27:47;102580.19;;;3.51;100.00
20909;BME280;10614;53.198;6.570;2023-01-29T08:29:48;102580.19;;;3.53;100.00
20909;BME280;10614;53.198;6.570;2023-01-29T08:31:50;102574.13;;;3.52;100.00
20909;BME280;10614;53.198;6.570;2023-01-29T08:33:52;102571.56;;;3.54;100.00
20909;BME280;10614;53.198;6.570;2023-01-29T08:35:55;102570.66;;;3.53;100.00
20909;BME280;10614;53.198;6.570;2023-01-29T08:37:58;102557.63;;;3.52;100.00
20909;BME280;10614;53.198;6.570;2023-01-29T08:40:00;102552.41;;;3.52;100.00
20909;BME280;10614;53.198;6.570;2023-01-29T08:42:02;102565.47;;;3.55;100.00
20909;BME280;10614;53.198;6.570;2023-01-29T08:44:04;102565.50;;;3.56;100.00
20909;BME280;10614;53.198;6.570;2023-01-29T08:46:06;102565.50;;;3.56;100.00
20909;BME280;10614;53.198;6.570;2023-01-29T08:48:08;102557.69;;;3.56;100.00
20909;BME280;10614;53.198;6.570;2023-01-29T08:50:10;102554.22;;;3.56;100.00
20909;BME280;10614;53.198;6.570;2023-01-29T08:52:13;102562.91;;;3.56;100.00
20909;BME280;10614;53.198;6.570;2023-01-29T08:54:15;102557.66;;;3.55;100.00
20909;BME280;10614;53.198;6.570;2023-01-29T08:56:17;102562.00;;;3.54;100.00
20909;BME280;10614;53.198;6.570;2023-01-29T08:58:19;102554.22;;;3.56;100.00
20909;BME280;10614;53.198;6.570;2023-01-29T09:00:21;102552.50;;;3.56;100.00
20909;BME280;10614;53.198;6.570;2023-01-29T09:02:22;102547.28;;;3.56;100.00
20909;BME280;10614;53.198;6.570;2023-01-29T09:04:24;102550.75;;;3.57;100.00
20909;BME280;10614;53.198;6.570;2023-01-29T09:06:26;102542.03;;;3.55;100.00
20909;BME280;10614;53.198;6.570;2023-01-29T09:08:29;102540.31;;;3.55;100.00
20909;BME280;10614;53.198;6.570;2023-01-29T09:10:31;102542.09;;;3.58;100.00
20909;BME280;10614;53.198;6.570;2023-01-29T09:12:33;102533.44;;;3.59;100.00
20909;BME280;10614;53.198;6.570;2023-01-29T09:14:35;102533.47;;;3.61;100.00
20909;BME280;10614;53.198;6.570;2023-01-29T09:16:36;102535.22;;;3.62;100.00
20909;BME280;10614;53.198;6.570;2023-01-29T09:18:38;102523.94;;;3.61;100.00
20909;BME280;10614;53.198;6.570;2023-01-29T09:20:39;102534.34;;;3.63;100.00
20909;BME280;10614;53.198;6.570;2023-01-29T09:22:41;102534.38;;;3.64;100.00
20909;BME280;10614;53.198;6.570;2023-01-29T09:24:44;102532.69;;;3.66;100.00
20909;BME280;10614;53.198;6.570;2023-01-29T09:26:46;102530.13;;;3.69;100.00
20909;BME280;10614;53.198;6.570;2023-01-29T09:28:48;102531.88;;;3.70;100.00
20909;BME280;10614;53.198;6.570;2023-01-29T09:30:51;102536.22;;;3.71;100.00
20909;BME280;10614;53.198;6.570;2023-01-29T09:32:52;102534.50;;;3.72;100.00
20909;BME280;10614;53.198;6.570;2023-01-29T09:34:54;102531.88;;;3.72;100.00
20909;BME280;10614;53.198;6.570;2023-01-29T09:36:55;102540.59;;;3.72;100.00
20909;BME280;10614;53.198;6.570;2023-01-29T09:38:57;102528.44;;;3.74;100.00
20909;BME280;10614;53.198;6.570;2023-01-29T09:41:06;102522.41;;;3.75;100.00
20909;BME280;10614;53.198;6.570;2023-01-29T09:43:13;102527.66;;;3.77;100.00
20909;BME280;10614;53.198;6.570;2023-01-29T09:45:21;102516.34;;;3.76;100.00
20909;BME280;10614;53.198;6.570;2023-01-29T09:47:25;102515.50;;;3.79;100.00
20909;BME280;10614;53.198;6.570;2023-01-29T09:49:30;102521.63;;;3.81;100.00
20909;BME280;10614;53.198;6.570;2023-01-29T09:51:36;102520.78;;;3.82;100.00
20909;BME280;10614;53.198;6.570;2023-01-29T09:53:45;102525.16;;;3.85;100.00
20909;BME280;10614;53.198;6.570;2023-01-29T09:55:53;102523.38;;;3.84;100.00
20909;BME280;10614;53.198;6.570;2023-01-29T09:58:03;102531.19;;;3.84;100.00
20909;BME280;10614;53.198;6.570;2023-01-29T10:00:13;102520.81;;;3.85;100.00
20909;BME280;10614;53.198;6.570;2023-01-29T10:02:28;102525.16;;;3.86;100.00
20909;BME280;10614;53.198;6.570;2023-01-29T10:04:48;102518.19;;;3.84;100.00
20909;BME280;10614;53.198;6.570;2023-01-29T10:07:03;102518.25;;;3.87;100.00
20909;BME280;10614;53.198;6.570;2023-01-29T10:11:45;102498.28;;;3.87;100.00
20909;BME280;10614;53.198;6.570;2023-01-29T10:14:09;102517.34;;;3.86;100.00
20909;BME280;10614;53.198;6.570;2023-01-29T10:16:28;102513.88;;;3.86;100.00
20909;BME280;10614;53.198;6.570;2023-01-29T10:18:43;102516.47;;;3.86;100.00
20909;BME280;10614;53.198;6.570;2023-01-29T10:20:56;102511.22;;;3.83;100.00
20909;BME280;10614;53.198;6.570;2023-01-29T10:23:09;102501.69;;;3.83;100.00
20909;BME280;10614;53.198;6.570;2023-01-29T10:25:15;102498.19;;;3.83;100.00
20909;BME280;10614;53.198;6.570;2023-01-29T10:27:18;102503.44;;;3.84;100.00
20909;BME280;10614;53.198;6.570;2023-01-29T10:29:22;102488.69;;;3.86;100.00
20909;BME280;10614;53.198;6.570;2023-01-29T10:31:29;102480.03;;;3.87;100.00
20909;BME280;10614;53.198;6.570;2023-01-29T10:33:36;102490.53;;;3.92;100.00
20909;BME280;10614;53.198;6.570;2023-01-29T10:35:41;102491.38;;;3.92;100.00
20909;BME280;10614;53.198;6.570;2023-01-29T10:37:44;102478.41;;;3.94;100.00
20909;BME280;10614;53.198;6.570;2023-01-29T10:39:46;102483.59;;;3.94;100.00
20909;BME280;10614;53.198;6.570;2023-01-29T10:42:10;102468.81;;;3.93;100.00
20909;BME280;10614;53.198;6.570;2023-01-29T10:44:19;102473.19;;;3.94;100.00
20909;BME280;10614;53.198;6.570;2023-01-29T10:46:37;102467.97;;;3.94;100.00
20909;BME280;10614;53.198;6.570;2023-01-29T10:48:53;102454.03;;;3.92;100.00
20909;BME280;10614;53.198;6.570;2023-01-29T10:50:59;102467.09;;;3.93;100.00
20909;BME280;10614;53.198;6.570;2023-01-29T10:53:25;102459.25;;;3.92;100.00
20909;BME280;10614;53.198;6.570;2023-01-29T10:55:39;102445.38;;;3.93;100.00
20909;BME280;10614;53.198;6.570;2023-01-29T10:57:55;102436.72;;;3.94;100.00
20909;BME280;10614;53.198;6.570;2023-01-29T11:00:07;102435.84;;;3.95;100.00
20909;BME280;10614;53.198;6.570;2023-01-29T11:02:15;102425.41;;;3.95;100.00